sensor_id;sensor_type;location;lat;lon;timestamp;pressure;altitude;pressure_sealevel;temperature;humidity
50292;BME280;36190;54.980;73.388;2022-09-09T00:01:43;100625.41;;;9.17;75.42
50292;BME280;36190;54.980;73.388;2022-09-09T00:04:23;100617.34;;;9.08;75.41
50292;BME280;36190;54.980;73.388;2022-09-09T00:07:02;100626.38;;;9.16;75.42
50292;BME280;36190;54.980;73.388;2022-09-09T00:09:35;100643.75;;;9.20;75.29
50292;BME280;36190;54.980;73.388;2022-09-09T00:12:11;100639.69;;;9.16;75.32
50292;BME280;36190;54.980;73.388;2022-09-09T00:14:47;100635.22;;;8.98;75.34
50292;BME280;36190;54.980;73.388;2022-09-09T00:17:24;100653.94;;;9.06;75.71
50292;BME280;36190;54.980;73.388;2022-09-09T00:20:01;100640.81;;;8.95;75.92
50292;BME280;36190;54.980;73.388;2022-09-09T00:22:30;100648.13;;;8.93;75.94
50292;BME280;36190;54.980;73.388;2022-09-09T00:25:08;100656.44;;;8.90;76.37
50292;BME280;36190;54.980;73.388;2022-09-09T00:27:41;100654.69;;;8.80;76.55
50292;BME280;36190;54.980;73.388;2022-09-09T00:30:18;100646.59;;;8.72;76.68
50292;BME280;36190;54.980;73.388;2022-09-09T00:32:49;100672.00;;;8.66;76.99
50292;BME280;36190;54.980;73.388;2022-09-09T00:35:22;100665.41;;;8.61;77.18
50292;BME280;36190;54.980;73.388;2022-09-09T00:37:52;100653.69;;;8.53;77.33
50292;BME280;36190;54.980;73.388;2022-09-09T00:40:27;100663.94;;;8.48;77.68
50292;BME280;36190;54.980;73.388;2022-09-09T00:43:16;100658.50;;;8.40;78.16
50292;BME280;36190;54.980;73.388;2022-09-09T00:48:59;100656.56;;;8.32;78.08
50292;BME280;36190;54.980;73.388;2022-09-09T00:51:37;100649.03;;;8.28;78.47
50292;BME280;36190;54.980;73.388;2022-09-09T00:54:25;100650.16;;;8.25;78.68
50292;BME280;36190;54.980;73.388;2022-09-09T00:57:04;100643.03;;;8.25;78.77
50292;BME280;36190;54.980;73.388;2022-09-09T00:59:44;100646.53;;;8.26;78.79
50292;BME280;36190;54.980;73.388;2022-09-09T01:02:26;100642.19;;;8.25;78.79
50292;BME280;36190;54.980;73.388;2022-09-09T01:04:59;100639.53;;;8.25;78.75
50292;BME280;36190;54.980;73.388;2022-09-09T01:07:28;100641.75;;;8.30;78.65
50292;BME280;36190;54.980;73.388;2022-09-09T01:09:57;100636.72;;;8.26;78.18
50292;BME280;36190;54.980;73.388;2022-09-09T01:12:30;100613.00;;;8.15;78.31
50292;BME280;36190;54.980;73.388;2022-09-09T01:15:09;100633.50;;;8.33;78.54
50292;BME280;36190;54.980;73.388;2022-09-09T01:17:53;100635.03;;;8.35;78.27
50292;BME280;36190;54.980;73.388;2022-09-09T01:20:24;100635.56;;;8.39;78.25
50292;BME280;36190;54.980;73.388;2022-09-09T01:23:04;100634.94;;;8.45;78.27
50292;BME280;36190;54.980;73.388;2022-09-09T01:26:16;100633.41;;;8.52;78.07
50292;BME280;36190;54.980;73.388;2022-09-09T01:28:46;100637.47;;;8.57;77.42
50292;BME280;36190;54.980;73.388;2022-09-09T01:31:18;100647.50;;;8.63;77.38
50292;BME280;36190;54.980;73.388;2022-09-09T01:33:46;100650.94;;;8.73;77.30
50292;BME280;36190;54.980;73.388;2022-09-09T01:36:19;100652.38;;;8.86;77.17
50292;BME280;36190;54.980;73.388;2022-09-09T01:38:48;100658.63;;;8.94;76.82
50292;BME280;36190;54.980;73.388;2022-09-09T01:41:17;100660.53;;;9.02;76.54
50292;BME280;36190;54.980;73.388;2022-09-09T01:43:44;100660.91;;;9.07;76.44
50292;BME280;36190;54.980;73.388;2022-09-09T01:46:12;100665.47;;;9.15;76.24
50292;BME280;36190;54.980;73.388;2022-09-09T01:48:41;100668.38;;;9.22;76.24
50292;BME280;36190;54.980;73.388;2022-09-09T01:51:10;100660.75;;;9.27;76.11
50292;BME280;36190;54.980;73.388;2022-09-09T01:53:38;100664.13;;;9.29;75.72
50292;BME280;36190;54.980;73.388;2022-09-09T01:56:14;100662.34;;;9.38;75.58
50292;BME280;36190;54.980;73.388;2022-09-09T01:58:57;100670.06;;;9.41;75.31
50292;BME280;36190;54.980;73.388;2022-09-09T02:01:39;100668.44;;;9.48;75.23
50292;BME280;36190;54.980;73.388;2022-09-09T02:04:18;100665.94;;;9.47;74.99
50292;BME280;36190;54.980;73.388;2022-09-09T02:06:52;100668.59;;;9.47;74.98
50292;BME280;36190;54.980;73.388;2022-09-09T02:09:24;100666.47;;;9.51;75.02
50292;BME280;36190;54.980;73.388;2022-09-09T02:11:57;100663.84;;;9.59;74.63
50292;BME280;36190;54.980;73.388;2022-09-09T02:14:31;100660.72;;;9.63;74.42
50292;BME280;36190;54.980;73.388;2022-09-09T02:17:08;100657.59;;;9.68;74.25
50292;BME280;36190;54.980;73.388;2022-09-09T02:19:39;100654.13;;;9.76;73.88
50292;BME280;36190;54.980;73.388;2022-09-09T02:22:10;100658.22;;;9.88;73.81
50292;BME280;36190;54.980;73.388;2022-09-09T02:24:39;100659.13;;;9.97;73.40
50292;BME280;36190;54.980;73.388;2022-09-09T02:27:09;100655.66;;;10.05;73.03
50292;BME280;36190;54.980;73.388;2022-09-09T02:29:41;100640.66;;;10.04;72.68
50292;BME280;36190;54.980;73.388;2022-09-09T02:32:11;100656.53;;;10.14;72.42
50292;BME280;36190;54.980;73.388;2022-09-09T02:34:43;100667.34;;;10.12;72.46
50292;BME280;36190;54.980;73.388;2022-09-09T02:37:13;100670.66;;;10.06;72.50
50292;BME280;36190;54.980;73.388;2022-09-09T02:39:44;100670.97;;;10.03;72.42
50292;BME280;36190;54.980;73.388;2022-09-09T02:42:11;100655.50;;;10.07;72.44
50292;BME280;36190;54.980;73.388;2022-09-09T02:44:42;100648.38;;;10.15;72.21
50292;BME280;36190;54.980;73.388;2022-09-09T02:47:23;100648.78;;;10.29;71.56
50292;BME280;36190;54.980;73.388;2022-09-09T02:50:08;100649.19;;;10.42;71.07
50292;BME280;36190;54.980;73.388;2022-09-09T02:52:45;100649.56;;;10.56;70.72
50292;BME280;36190;54.980;73.388;2022-09-09T02:55:18;100652.25;;;10.64;70.31
50292;BME280;36190;54.980;73.388;2022-09-09T02:57:48;100658.78;;;10.78;70.56
50292;BME280;36190;54.980;73.388;2022-09-09T03:00:23;100652.97;;;10.83;69.96
50292;BME280;36190;54.980;73.388;2022-09-09T03:02:51;100656.50;;;10.92;69.73
50292;BME280;36190;54.980;73.388;2022-09-09T03:05:20;100652.31;;;10.97;69.37
50292;BME280;36190;54.980;73.388;2022-09-09T03:07:47;100658.19;;;11.09;69.10
50292;BME280;36190;54.980;73.388;2022-09-09T03:10:16;100657.03;;;11.20;68.54
50292;BME280;36190;54.980;73.388;2022-09-09T03:12:44;100653.38;;;11.30;68.26
50292;BME280;36190;54.980;73.388;2022-09-09T03:15:11;100654.53;;;11.35;67.82
50292;BME280;36190;54.980;73.388;2022-09-09T03:17:40;100649.69;;;11.39;67.61
50292;BME280;36190;54.980;73.388;2022-09-09T03:20:08;100643.34;;;11.48;67.45
50292;BME280;36190;54.980;73.388;2022-09-09T03:22:35;100647.69;;;11.58;67.04
50292;BME280;36190;54.980;73.388;2022-09-09T03:25:04;100641.34;;;11.67;66.86
50292;BME280;36190;54.980;73.388;2022-09-09T03:27:32;100651.00;;;11.76;66.26
50292;BME280;36190;54.980;73.388;2022-09-09T03:29:59;100643.31;;;11.81;65.68
50292;BME280;36190;54.980;73.388;2022-09-09T03:32:29;100647.63;;;11.91;65.55
50292;BME280;36190;54.980;73.388;2022-09-09T03:34:58;100637.44;;;11.94;65.17
50292;BME280;36190;54.980;73.388;2022-09-09T03:37:26;100649.28;;;12.08;65.06
50292;BME280;36190;54.980;73.388;2022-09-09T03:39:53;100641.25;;;12.17;64.77
50292;BME280;36190;54.980;73.388;2022-09-09T03:42:21;100651.25;;;12.23;64.54
50292;BME280;36190;54.980;73.388;2022-09-09T03:44:48;100649.56;;;12.30;64.01
50292;BME280;36190;54.980;73.388;2022-09-09T03:47:17;100651.50;;;12.36;63.87
50292;BME280;36190;54.980;73.388;2022-09-09T03:49:45;100652.00;;;12.40;63.67
50292;BME280;36190;54.980;73.388;2022-09-09T03:52:14;100654.16;;;12.45;63.37
50292;BME280;36190;54.980;73.388;2022-09-09T03:54:42;100651.81;;;12.50;63.31
50292;BME280;36190;54.980;73.388;2022-09-09T03:57:09;100651.09;;;12.56;63.06
50292;BME280;36190;54.980;73.388;2022-09-09T03:59:37;100646.72;;;12.63;62.97
50292;BME280;36190;54.980;73.388;2022-09-09T04:02:04;100661.41;;;12.68;62.81
50292;BME280;36190;54.980;73.388;2022-09-09T04:04:31;100653.03;;;12.71;62.68
50292;BME280;36190;54.980;73.388;2022-09-09T04:06:59;100652.69;;;12.74;62.61
50292;BME280;36190;54.980;73.388;2022-09-09T04:09:27;100646.97;;;12.77;62.34
50292;BME280;36190;54.980;73.388;2022-09-09T04:11:55;100652.47;;;12.84;62.37
50292;BME280;36190;54.980;73.388;2022-09-09T04:14:22;100664.97;;;12.91;62.26
50292;BME280;36190;54.980;73.388;2022-09-09T04:16:53;100660.56;;;12.99;62.04
50292;BME280;36190;54.980;73.388;2022-09-09T04:19:23;100661.53;;;13.06;61.96
50292;BME280;36190;54.980;73.388;2022-09-09T04:21:50;100664.47;;;13.11;61.59
50292;BME280;36190;54.980;73.388;2022-09-09T04:24:18;100668.97;;;13.19;61.55
50292;BME280;36190;54.980;73.388;2022-09-09T04:26:47;100663.38;;;13.29;61.40
50292;BME280;36190;54.980;73.388;2022-09-09T04:29:14;100663.41;;;13.44;61.10
50292;BME280;36190;54.980;73.388;2022-09-09T04:31:42;100654.41;;;13.60;60.79
50292;BME280;36190;54.980;73.388;2022-09-09T04:34:10;100659.34;;;13.71;60.21
50292;BME280;36190;54.980;73.388;2022-09-09T04:36:37;100660.63;;;13.75;60.03
50292;BME280;36190;54.980;73.388;2022-09-09T04:39:04;100662.28;;;13.77;59.55
50292;BME280;36190;54.980;73.388;2022-09-09T04:41:32;100656.84;;;13.85;59.06
50292;BME280;36190;54.980;73.388;2022-09-09T04:44:03;100652.72;;;13.97;58.22
50292;BME280;36190;54.980;73.388;2022-09-09T04:46:31;100656.59;;;14.10;57.96
50292;BME280;36190;54.980;73.388;2022-09-09T04:49:00;100648.09;;;14.21;57.58
50292;BME280;36190;54.980;73.388;2022-09-09T04:51:27;100655.41;;;14.27;57.28
50292;BME280;36190;54.980;73.388;2022-09-09T04:53:57;100645.31;;;14.29;57.06
50292;BME280;36190;54.980;73.388;2022-09-09T04:56:24;100646.56;;;14.34;56.67
50292;BME280;36190;54.980;73.388;2022-09-09T04:58:52;100652.59;;;14.51;56.23
50292;BME280;36190;54.980;73.388;2022-09-09T05:01:21;100644.94;;;14.84;55.42
50292;BME280;36190;54.980;73.388;2022-09-09T05:03:49;100644.91;;;15.21;54.57
50292;BME280;36190;54.980;73.388;2022-09-09T05:06:19;100640.66;;;15.62;53.60
50292;BME280;36190;54.980;73.388;2022-09-09T05:08:47;100629.22;;;15.82;52.99
50292;BME280;36190;54.980;73.388;2022-09-09T05:11:16;100633.59;;;15.90;52.62
50292;BME280;36190;54.980;73.388;2022-09-09T05:13:44;100638.13;;;15.89;52.26
50292;BME280;36190;54.980;73.388;2022-09-09T05:16:12;100634.00;;;15.87;51.97
50292;BME280;36190;54.980;73.388;2022-09-09T05:18:41;100632.28;;;15.79;51.52
50292;BME280;36190;54.980;73.388;2022-09-09T05:21:10;100623.13;;;15.66;51.43
50292;BME280;36190;54.980;73.388;2022-09-09T05:23:37;100618.66;;;15.52;51.68
50292;BME280;36190;54.980;73.388;2022-09-09T05:26:05;100618.63;;;15.45;51.57
50292;BME280;36190;54.980;73.388;2022-09-09T05:28:34;100627.03;;;15.35;51.50
50292;BME280;36190;54.980;73.388;2022-09-09T05:31:04;100621.59;;;15.29;51.57
50292;BME280;36190;54.980;73.388;2022-09-09T05:33:34;100622.59;;;15.27;51.63
50292;BME280;36190;54.980;73.388;2022-09-09T05:36:04;100605.06;;;15.32;51.34
50292;BME280;36190;54.980;73.388;2022-09-09T05:38:32;100610.50;;;15.38;51.29
50292;BME280;36190;54.980;73.388;2022-09-09T05:41:00;100597.13;;;15.45;51.00
50292;BME280;36190;54.980;73.388;2022-09-09T05:43:28;100600.72;;;15.59;50.86
50292;BME280;36190;54.980;73.388;2022-09-09T05:46:00;100598.59;;;15.83;50.19
50292;BME280;36190;54.980;73.388;2022-09-09T05:48:29;100600.16;;;15.99;49.67
50292;BME280;36190;54.980;73.388;2022-09-09T05:50:57;100603.91;;;16.05;49.11
50292;BME280;36190;54.980;73.388;2022-09-09T05:53:26;100605.19;;;16.16;48.63
50292;BME280;36190;54.980;73.388;2022-09-09T05:56:01;100608.56;;;16.25;48.39
50292;BME280;36190;54.980;73.388;2022-09-09T05:58:30;100620.16;;;16.25;48.41
50292;BME280;36190;54.980;73.388;2022-09-09T06:01:03;100620.13;;;16.18;47.96
50292;BME280;36190;54.980;73.388;2022-09-09T06:03:30;100625.91;;;16.15;48.45
50292;BME280;36190;54.980;73.388;2022-09-09T06:05:59;100622.97;;;16.10;48.71
50292;BME280;36190;54.980;73.388;2022-09-09T06:08:28;100628.78;;;16.07;48.66
50292;BME280;36190;54.980;73.388;2022-09-09T06:11:01;100624.66;;;16.11;48.44
50292;BME280;36190;54.980;73.388;2022-09-09T06:13:29;100621.38;;;16.22;49.32
50292;BME280;36190;54.980;73.388;2022-09-09T06:15:57;100614.31;;;16.21;48.92
50292;BME280;36190;54.980;73.388;2022-09-09T06:18:25;100601.72;;;16.22;49.02
50292;BME280;36190;54.980;73.388;2022-09-09T06:20:54;100592.84;;;16.28;49.77
50292;BME280;36190;54.980;73.388;2022-09-09T06:23:22;100588.09;;;16.37;49.23
50292;BME280;36190;54.980;73.388;2022-09-09T06:25:51;100581.31;;;16.55;48.52
50292;BME280;36190;54.980;73.388;2022-09-09T06:28:18;100571.59;;;16.74;48.13
50292;BME280;36190;54.980;73.388;2022-09-09T06:30:46;100577.66;;;16.89;47.85
50292;BME280;36190;54.980;73.388;2022-09-09T06:33:13;100566.66;;;16.98;47.42
50292;BME280;36190;54.980;73.388;2022-09-09T06:35:40;100570.44;;;17.10;47.16
50292;BME280;36190;54.980;73.388;2022-09-09T06:38:09;100559.03;;;17.15;46.81
50292;BME280;36190;54.980;73.388;2022-09-09T06:40:37;100559.88;;;17.22;46.31
50292;BME280;36190;54.980;73.388;2022-09-09T06:43:06;100546.56;;;17.27;45.69
50292;BME280;36190;54.980;73.388;2022-09-09T06:45:34;100545.09;;;17.38;45.50
50292;BME280;36190;54.980;73.388;2022-09-09T06:48:02;100547.34;;;17.55;45.08
50292;BME280;36190;54.980;73.388;2022-09-09T06:50:29;100530.31;;;17.68;44.66
50292;BME280;36190;54.980;73.388;2022-09-09T06:52:57;100531.97;;;17.76;44.64
50292;BME280;36190;54.980;73.388;2022-09-09T06:55:24;100524.88;;;17.81;44.30
50292;BME280;36190;54.980;73.388;2022-09-09T06:57:51;100520.88;;;17.91;43.90
50292;BME280;36190;54.980;73.388;2022-09-09T07:00:20;100523.94;;;18.01;43.28
50292;BME280;36190;54.980;73.388;2022-09-09T07:02:48;100514.78;;;18.16;42.73
50292;BME280;36190;54.980;73.388;2022-09-09T07:05:16;100500.16;;;18.30;42.32
50292;BME280;36190;54.980;73.388;2022-09-09T07:07:43;100500.97;;;18.37;41.97
50292;BME280;36190;54.980;73.388;2022-09-09T07:10:11;100513.84;;;18.35;41.96
50292;BME280;36190;54.980;73.388;2022-09-09T07:12:38;100494.31;;;18.33;41.78
50292;BME280;36190;54.980;73.388;2022-09-09T07:15:06;100498.84;;;18.39;41.65
50292;BME280;36190;54.980;73.388;2022-09-09T07:17:35;100489.63;;;18.54;41.07
50292;BME280;36190;54.980;73.388;2022-09-09T07:20:03;100491.41;;;18.67;40.78
50292;BME280;36190;54.980;73.388;2022-09-09T07:22:30;100483.22;;;18.74;40.67
50292;BME280;36190;54.980;73.388;2022-09-09T07:24:58;100469.44;;;18.82;40.23
50292;BME280;36190;54.980;73.388;2022-09-09T07:27:27;100480.25;;;18.82;40.04
50292;BME280;36190;54.980;73.388;2022-09-09T07:29:55;100466.25;;;18.92;39.88
50292;BME280;36190;54.980;73.388;2022-09-09T07:32:23;100460.50;;;19.07;39.66
50292;BME280;36190;54.980;73.388;2022-09-09T07:34:52;100457.88;;;19.19;39.21
50292;BME280;36190;54.980;73.388;2022-09-09T07:37:20;100458.34;;;19.34;39.06
50292;BME280;36190;54.980;73.388;2022-09-09T07:39:47;100444.31;;;19.44;38.58
50292;BME280;36190;54.980;73.388;2022-09-09T07:42:15;100441.97;;;19.48;38.48
50292;BME280;36190;54.980;73.388;2022-09-09T07:44:42;100433.03;;;19.47;38.27
50292;BME280;36190;54.980;73.388;2022-09-09T07:47:09;100435.66;;;19.35;38.04
50292;BME280;36190;54.980;73.388;2022-09-09T07:49:37;100433.19;;;19.34;38.08
50292;BME280;36190;54.980;73.388;2022-09-09T07:52:06;100419.38;;;19.42;37.60
50292;BME280;36190;54.980;73.388;2022-09-09T07:54:33;100424.59;;;19.56;37.65
50292;BME280;36190;54.980;73.388;2022-09-09T07:57:00;100421.19;;;19.79;37.46
50292;BME280;36190;54.980;73.388;2022-09-09T07:59:29;100430.50;;;20.14;37.08
50292;BME280;36190;54.980;73.388;2022-09-09T08:01:56;100430.16;;;20.22;36.77
50292;BME280;36190;54.980;73.388;2022-09-09T08:04:24;100427.47;;;20.22;36.38
50292;BME280;36190;54.980;73.388;2022-09-09T08:06:55;100407.97;;;20.44;35.77
50292;BME280;36190;54.980;73.388;2022-09-09T08:09:26;100408.09;;;20.61;34.87
50292;BME280;36190;54.980;73.388;2022-09-09T08:11:55;100412.78;;;20.42;34.95
50292;BME280;36190;54.980;73.388;2022-09-09T08:14:24;100400.38;;;20.22;35.48
50292;BME280;36190;54.980;73.388;2022-09-09T08:16:51;100409.13;;;20.24;35.74
50292;BME280;36190;54.980;73.388;2022-09-09T08:19:19;100393.59;;;20.31;35.62
50292;BME280;36190;54.980;73.388;2022-09-09T08:21:47;100406.16;;;20.38;35.66
50292;BME280;36190;54.980;73.388;2022-09-09T08:24:14;100395.94;;;20.40;35.73
50292;BME280;36190;54.980;73.388;2022-09-09T08:26:45;100383.44;;;20.39;35.44
50292;BME280;36190;54.980;73.388;2022-09-09T08:29:13;100374.97;;;20.47;35.19
50292;BME280;36190;54.980;73.388;2022-09-09T08:31:43;100366.47;;;20.55;34.90
50292;BME280;36190;54.980;73.388;2022-09-09T08:34:10;100362.69;;;20.80;34.93
50292;BME280;36190;54.980;73.388;2022-09-09T08:36:39;100391.13;;;21.01;34.54
50292;BME280;36190;54.980;73.388;2022-09-09T08:39:09;100376.63;;;20.96;34.36
50292;BME280;36190;54.980;73.388;2022-09-09T08:41:50;100380.63;;;20.69;33.92
50292;BME280;36190;54.980;73.388;2022-09-09T08:44:31;100360.13;;;20.61;34.60
50292;BME280;36190;54.980;73.388;2022-09-09T08:47:07;100355.19;;;20.70;34.71
50292;BME280;36190;54.980;73.388;2022-09-09T08:50:03;100343.63;;;20.99;34.12
50292;BME280;36190;54.980;73.388;2022-09-09T08:52:38;100351.91;;;21.33;33.99
50292;BME280;36190;54.980;73.388;2022-09-09T08:55:20;100338.16;;;21.81;33.39
50292;BME280;36190;54.980;73.388;2022-09-09T08:57:52;100333.03;;;22.02;32.95
50292;BME280;36190;54.980;73.388;2022-09-09T09:00:21;100326.13;;;21.94;33.24
50292;BME280;36190;54.980;73.388;2022-09-09T09:02:56;100323.91;;;21.74;32.70
50292;BME280;36190;54.980;73.388;2022-09-09T09:05:30;100318.66;;;21.55;32.91
50292;BME280;36190;54.980;73.388;2022-09-09T09:08:07;100320.78;;;21.53;32.83
50292;BME280;36190;54.980;73.388;2022-09-09T09:10:45;100317.47;;;21.34;32.66
50292;BME280;36190;54.980;73.388;2022-09-09T09:13:19;100306.03;;;21.20;32.83
50292;BME280;36190;54.980;73.388;2022-09-09T09:15:52;100318.06;;;21.24;32.92
50292;BME280;36190;54.980;73.388;2022-09-09T09:18:21;100326.22;;;21.24;32.68
50292;BME280;36190;54.980;73.388;2022-09-09T09:20:58;100303.44;;;21.25;32.43
50292;BME280;36190;54.980;73.388;2022-09-09T09:23:33;100303.06;;;21.33;32.06
50292;BME280;36190;54.980;73.388;2022-09-09T09:26:07;100303.69;;;21.52;31.34
50292;BME280;36190;54.980;73.388;2022-09-09T09:28:39;100292.81;;;21.52;31.05
50292;BME280;36190;54.980;73.388;2022-09-09T09:31:09;100299.63;;;21.84;30.71
50292;BME280;36190;54.980;73.388;2022-09-09T09:33:47;100297.72;;;22.19;29.71
50292;BME280;36190;54.980;73.388;2022-09-09T09:36:16;100281.69;;;22.00;29.67
50292;BME280;36190;54.980;73.388;2022-09-09T09:38:55;100276.91;;;21.90;29.54
50292;BME280;36190;54.980;73.388;2022-09-09T09:41:30;100281.63;;;21.66;30.06
50292;BME280;36190;54.980;73.388;2022-09-09T09:43:59;100256.44;;;21.36;30.07
50292;BME280;36190;54.980;73.388;2022-09-09T09:46:27;100278.44;;;21.23;30.47
50292;BME280;36190;54.980;73.388;2022-09-09T09:49:00;100267.19;;;21.02;30.38
50292;BME280;36190;54.980;73.388;2022-09-09T09:51:28;100253.84;;;20.59;30.42
50292;BME280;36190;54.980;73.388;2022-09-09T09:54:09;100242.31;;;20.28;30.88
50292;BME280;36190;54.980;73.388;2022-09-09T09:56:41;100258.34;;;20.18;30.89
50292;BME280;36190;54.980;73.388;2022-09-09T09:59:22;100250.34;;;20.11;31.07
50292;BME280;36190;54.980;73.388;2022-09-09T10:01:50;100258.56;;;20.04;31.46
50292;BME280;36190;54.980;73.388;2022-09-09T10:04:19;100237.13;;;19.91;31.69
50292;BME280;36190;54.980;73.388;2022-09-09T10:06:49;100245.94;;;19.86;31.77
50292;BME280;36190;54.980;73.388;2022-09-09T10:09:24;100241.91;;;19.77;31.93
50292;BME280;36190;54.980;73.388;2022-09-09T10:11:57;100232.97;;;19.64;31.66
50292;BME280;36190;54.980;73.388;2022-09-09T10:14:32;100231.06;;;19.53;31.85
50292;BME280;36190;54.980;73.388;2022-09-09T10:17:13;100240.59;;;19.56;32.24
50292;BME280;36190;54.980;73.388;2022-09-09T10:19:53;100225.44;;;19.67;32.54
50292;BME280;36190;54.980;73.388;2022-09-09T10:22:26;100234.06;;;19.75;32.33
50292;BME280;36190;54.980;73.388;2022-09-09T10:28:15;100222.31;;;20.17;32.38
50292;BME280;36190;54.980;73.388;2022-09-09T10:30:53;100206.19;;;20.23;31.92
50292;BME280;36190;54.980;73.388;2022-09-09T10:33:28;100237.97;;;20.27;31.55
50292;BME280;36190;54.980;73.388;2022-09-09T10:36:07;100233.50;;;20.09;31.77
50292;BME280;36190;54.980;73.388;2022-09-09T10:38:40;100234.56;;;19.96;32.09
50292;BME280;36190;54.980;73.388;2022-09-09T10:41:32;100231.00;;;19.84;32.35
50292;BME280;36190;54.980;73.388;2022-09-09T10:44:32;100219.38;;;19.95;32.52
50292;BME280;36190;54.980;73.388;2022-09-09T10:47:12;100228.66;;;20.23;32.78
50292;BME280;36190;54.980;73.388;2022-09-09T10:50:07;100224.53;;;20.44;32.43
50292;BME280;36190;54.980;73.388;2022-09-09T10:52:46;100242.75;;;20.61;32.22
50292;BME280;36190;54.980;73.388;2022-09-09T10:55:22;100236.03;;;20.64;32.22
50292;BME280;36190;54.980;73.388;2022-09-09T10:57:53;100221.31;;;20.59;32.55
50292;BME280;36190;54.980;73.388;2022-09-09T11:00:24;100222.59;;;20.69;32.53
50292;BME280;36190;54.980;73.388;2022-09-09T11:02:56;100235.03;;;20.94;32.56
50292;BME280;36190;54.980;73.388;2022-09-09T11:05:28;100246.66;;;21.06;32.33
50292;BME280;36190;54.980;73.388;2022-09-09T11:07:59;100237.97;;;20.92;32.43
50292;BME280;36190;54.980;73.388;2022-09-09T11:10:36;100271.00;;;20.77;32.35
50292;BME280;36190;54.980;73.388;2022-09-09T11:13:11;100230.72;;;20.69;32.54
50292;BME280;36190;54.980;73.388;2022-09-09T11:15:45;100228.16;;;21.03;32.62
50292;BME280;36190;54.980;73.388;2022-09-09T11:18:19;100249.50;;;21.28;32.17
50292;BME280;36190;54.980;73.388;2022-09-09T11:20:49;100222.25;;;21.52;31.90
50292;BME280;36190;54.980;73.388;2022-09-09T11:23:22;100248.75;;;22.14;31.51
50292;BME280;36190;54.980;73.388;2022-09-09T11:25:55;100242.22;;;22.71;30.67
50292;BME280;36190;54.980;73.388;2022-09-09T11:28:42;100249.84;;;23.24;30.21
50292;BME280;36190;54.980;73.388;2022-09-09T11:31:22;100242.88;;;23.33;29.98
50292;BME280;36190;54.980;73.388;2022-09-09T11:34:09;100248.84;;;23.58;29.85
50292;BME280;36190;54.980;73.388;2022-09-09T11:36:56;100256.59;;;23.71;29.05
50292;BME280;36190;54.980;73.388;2022-09-09T11:39:46;100234.44;;;23.62;29.04
50292;BME280;36190;54.980;73.388;2022-09-09T11:42:20;100225.06;;;23.48;28.74
50292;BME280;36190;54.980;73.388;2022-09-09T11:44:47;100298.69;;;23.58;28.70
50292;BME280;36190;54.980;73.388;2022-09-09T11:47:25;100275.69;;;23.44;29.02
50292;BME280;36190;54.980;73.388;2022-09-09T11:50:08;100226.63;;;22.89;28.68
50292;BME280;36190;54.980;73.388;2022-09-09T11:52:40;100244.25;;;22.42;29.17
50292;BME280;36190;54.980;73.388;2022-09-09T11:55:20;100243.41;;;22.02;30.21
50292;BME280;36190;54.980;73.388;2022-09-09T11:57:57;100246.22;;;21.73;30.46
50292;BME280;36190;54.980;73.388;2022-09-09T12:00:34;100247.72;;;21.34;31.04
50292;BME280;36190;54.980;73.388;2022-09-09T12:03:03;100229.28;;;20.78;31.38
50292;BME280;36190;54.980;73.388;2022-09-09T12:05:41;100245.22;;;20.63;31.64
50292;BME280;36190;54.980;73.388;2022-09-09T12:08:10;100261.63;;;20.44;31.60
50292;BME280;36190;54.980;73.388;2022-09-09T12:10:39;100253.75;;;20.18;31.94
50292;BME280;36190;54.980;73.388;2022-09-09T12:13:16;100278.94;;;20.07;31.82
50292;BME280;36190;54.980;73.388;2022-09-09T12:15:50;100236.69;;;19.94;31.96
50292;BME280;36190;54.980;73.388;2022-09-09T12:18:23;100237.03;;;19.98;32.07
50292;BME280;36190;54.980;73.388;2022-09-09T12:21:01;100241.22;;;19.93;31.89
50292;BME280;36190;54.980;73.388;2022-09-09T12:23:37;100252.19;;;19.87;32.05
50292;BME280;36190;54.980;73.388;2022-09-09T12:26:20;100266.72;;;19.62;32.40
50292;BME280;36190;54.980;73.388;2022-09-09T12:28:59;100226.19;;;19.31;32.68
50292;BME280;36190;54.980;73.388;2022-09-09T12:31:34;100236.97;;;19.19;33.06
50292;BME280;36190;54.980;73.388;2022-09-09T12:34:09;100244.66;;;19.04;33.26
50292;BME280;36190;54.980;73.388;2022-09-09T12:36:40;100234.81;;;19.09;33.31
50292;BME280;36190;54.980;73.388;2022-09-09T12:39:17;100239.03;;;19.36;32.93
50292;BME280;36190;54.980;73.388;2022-09-09T12:41:51;100235.28;;;20.03;32.30
50292;BME280;36190;54.980;73.388;2022-09-09T12:44:23;100238.97;;;20.74;31.57
50292;BME280;36190;54.980;73.388;2022-09-09T12:46:51;100239.63;;;21.22;30.96
50292;BME280;36190;54.980;73.388;2022-09-09T12:49:31;100237.50;;;21.24;31.22
50292;BME280;36190;54.980;73.388;2022-09-09T12:52:05;100256.88;;;20.75;31.57
50292;BME280;36190;54.980;73.388;2022-09-09T12:54:35;100244.91;;;20.23;32.31
50292;BME280;36190;54.980;73.388;2022-09-09T12:57:04;100235.22;;;19.79;32.97
50292;BME280;36190;54.980;73.388;2022-09-09T12:59:36;100240.84;;;19.54;33.59
50292;BME280;36190;54.980;73.388;2022-09-09T13:02:16;100236.44;;;19.29;33.92
50292;BME280;36190;54.980;73.388;2022-09-09T13:04:44;100244.47;;;18.99;34.59
50292;BME280;36190;54.980;73.388;2022-09-09T13:07:14;100238.34;;;18.73;35.04
50292;BME280;36190;54.980;73.388;2022-09-09T13:09:42;100244.84;;;18.53;35.45
50292;BME280;36190;54.980;73.388;2022-09-09T13:12:14;100245.84;;;18.33;35.90
50292;BME280;36190;54.980;73.388;2022-09-09T13:14:43;100238.19;;;18.11;36.10